Time;durP1;ratioP1;P1;durP2;ratioP2;P2;SDS_P1;SDS_P2;PMS_P1;PMS_P2;Temp;Humidity;BMP_temperature;BMP_pressure;BME280_temperature;BME280_humidity;BME280_pressure;Samples;Min_cycle;Max_cycle;Signal;HPM_P1;HPM_P2
2024/01/26 00:00:22;;;;;;;;;;;;;;;7.76;53.06;99803.81;4973091;28;20359;-87
2024/01/26 00:02:47;;;;;;;;;;;;;;;7.69;52.96;99806.25;4972964;28;19925;-86
2024/01/26 00:05:13;;;;;;;;;;;;;;;7.71;52.90;99808.72;4971771;28;19914;-88
2024/01/26 00:07:38;;;;;;;;;;;;;;;7.66;53.06;99806.56;4971726;28;19914;-88
2024/01/26 00:10:03;;;;;;;;;;;;;;;7.69;53.17;99816.75;4971630;28;19925;-87
2024/01/26 00:12:30;;;;;;;;;;;;;;;7.68;53.37;99814.28;4973254;28;19914;-88
2024/01/26 00:14:55;;;;;;;;;;;;;;;7.67;53.60;99818.72;4971670;28;19918;-87
2024/01/26 00:17:21;;;;;;;;;;;;;;;7.70;53.21;99809.69;4972865;28;19914;-88
2024/01/26 00:19:46;;;;;;;;;;;;;;;7.71;53.15;99820.06;4955608;28;20355;-88
2024/01/26 00:22:11;;;;;;;;;;;;;;;7.73;52.64;99812.03;4972858;28;19918;-87
2024/01/26 00:24:36;;;;;;;;;;;;;;;7.70;52.82;99802.63;4972935;28;19925;-87
2024/01/26 00:27:02;;;;;;;;;;;;;;;7.69;52.49;99810.69;4973139;28;20410;-87
2024/01/26 00:29:28;;;;;;;;;;;;;;;7.65;53.04;99808.34;4955849;28;19925;-87
2024/01/26 00:31:53;;;;;;;;;;;;;;;7.70;52.72;99807.06;4971938;28;19914;-87
2024/01/26 00:34:18;;;;;;;;;;;;;;;7.58;52.92;99817.00;4971695;28;20395;-87
2024/01/26 00:36:44;;;;;;;;;;;;;;;7.57;52.91;99803.03;4971713;28;19921;-87
2024/01/26 00:39:09;;;;;;;;;;;;;;;7.58;52.94;99804.69;4973271;28;19910;-87
2024/01/26 00:41:35;;;;;;;;;;;;;;;7.59;52.77;99808.13;4955488;28;20017;-86
2024/01/26 00:44:00;;;;;;;;;;;;;;;7.52;52.53;99797.41;4972821;28;19922;-85
2024/01/26 00:46:25;;;;;;;;;;;;;;;7.47;52.27;99799.66;4972895;28;20359;-87
2024/01/26 00:48:51;;;;;;;;;;;;;;;7.51;52.98;99801.03;4955570;28;19920;-87
2024/01/26 00:51:17;;;;;;;;;;;;;;;7.52;52.50;99800.03;4972463;28;19914;-87
2024/01/26 00:53:42;;;;;;;;;;;;;;;7.53;52.04;99803.50;4971346;28;19922;-88
2024/01/26 00:56:07;;;;;;;;;;;;;;;7.53;52.31;99801.69;4972508;28;19914;-88
2024/01/26 00:58:33;;;;;;;;;;;;;;;7.50;51.97;99802.00;4973881;28;19942;-87
2024/01/26 01:00:58;;;;;;;;;;;;;;;7.48;52.42;99808.38;4958586;28;20391;-87
2024/01/26 01:03:24;;;;;;;;;;;;;;;7.47;51.77;99807.56;4976313;28;19918;-88
2024/01/26 01:05:49;;;;;;;;;;;;;;;7.43;51.48;99798.31;4958751;28;19914;-87
2024/01/26 01:08:14;;;;;;;;;;;;;;;7.43;51.87;99795.69;4974928;28;20022;-87
2024/01/26 01:10:40;;;;;;;;;;;;;;;7.47;52.47;99802.31;4959077;28;19914;-87
2024/01/26 01:13:08;;;;;;;;;;;;;;;7.41;52.01;99807.31;4976211;28;19914;-87
2024/01/26 01:15:34;;;;;;;;;;;;;;;7.40;51.92;99805.66;4975122;28;19925;-87
2024/01/26 01:18:00;;;;;;;;;;;;;;;7.39;51.38;99812.72;4958648;28;19921;-87
2024/01/26 01:20:26;;;;;;;;;;;;;;;7.41;52.33;99808.13;4976152;28;20315;-87
2024/01/26 01:22:53;;;;;;;;;;;;;;;7.41;51.79;99802.88;4974342;28;21643;-88
2024/01/26 01:25:19;;;;;;;;;;;;;;;7.43;51.84;99805.34;4958511;28;19918;-87
2024/01/26 01:27:44;;;;;;;;;;;;;;;7.46;52.38;99807.72;4958470;28;19913;-87
2024/01/26 01:30:09;;;;;;;;;;;;;;;7.41;51.91;99817.81;4975923;28;19918;-87
2024/01/26 01:32:35;;;;;;;;;;;;;;;7.38;51.25;99808.44;4976133;28;19961;-88
2024/01/26 01:35:00;;;;;;;;;;;;;;;7.39;52.12;99809.25;4974576;28;19929;-87
2024/01/26 01:37:25;;;;;;;;;;;;;;;7.37;51.38;99813.84;4975852;28;20396;-88
2024/01/26 01:39:51;;;;;;;;;;;;;;;7.39;51.82;99807.44;4958522;28;19917;-87
2024/01/26 01:42:16;;;;;;;;;;;;;;;7.36;50.81;99799.06;4975429;28;19925;-88
2024/01/26 01:44:42;;;;;;;;;;;;;;;7.36;50.99;99799.88;4975522;28;19957;-88
2024/01/26 01:47:08;;;;;;;;;;;;;;;7.38;51.11;99803.19;4975570;28;19920;-87
2024/01/26 01:49:33;;;;;;;;;;;;;;;7.39;51.15;99796.94;4975558;28;20388;-86
2024/01/26 01:51:59;;;;;;;;;;;;;;;7.37;50.84;99801.53;4974178;28;19914;-86
2024/01/26 01:54:26;;;;;;;;;;;;;;;7.33;50.35;99806.25;4975507;28;19950;-87
2024/01/26 01:56:53;;;;;;;;;;;;;;;7.36;50.66;99796.41;4975395;28;19925;-87
2024/01/26 01:59:18;;;;;;;;;;;;;;;7.32;50.80;99795.91;4974197;28;19926;-87
2024/01/26 02:01:44;;;;;;;;;;;;;;;7.32;51.13;99794.09;4973843;28;19925;-87
2024/01/26 02:04:09;;;;;;;;;;;;;;;7.35;50.92;99800.84;4973921;28;19914;-87
2024/01/26 02:06:34;;;;;;;;;;;;;;;7.31;49.92;99802.97;4957934;28;19925;-87
2024/01/26 02:09:00;;;;;;;;;;;;;;;7.31;50.26;99797.69;4957834;28;20292;-87
2024/01/26 02:11:25;;;;;;;;;;;;;;;7.30;50.77;99790.78;4975330;28;19914;-87
2024/01/26 02:13:50;;;;;;;;;;;;;;;7.32;50.56;99795.91;4974947;28;19914;-87
2024/01/26 02:16:16;;;;;;;;;;;;;;;7.33;50.69;99793.13;4974983;28;19910;-87
2024/01/26 02:18:41;;;;;;;;;;;;;;;7.30;50.22;99795.22;4973641;28;19914;-88
2024/01/26 02:21:06;;;;;;;;;;;;;;;7.20;50.06;99805.81;4975049;28;19918;-88
2024/01/26 02:23:31;;;;;;;;;;;;;;;7.26;51.17;99807.00;4973563;28;20483;-87
2024/01/26 02:25:57;;;;;;;;;;;;;;;7.24;49.92;99799.28;4957505;28;20009;-87
2024/01/26 02:28:23;;;;;;;;;;;;;;;7.24;49.77;99801.91;4975249;28;19946;-88
2024/01/26 02:30:48;;;;;;;;;;;;;;;7.21;49.90;99801.38;4957361;28;19969;-88
2024/01/26 02:33:13;;;;;;;;;;;;;;;7.23;50.30;99791.56;4974713;28;19914;-87
2024/01/26 02:35:39;;;;;;;;;;;;;;;7.22;50.64;99806.47;4957493;28;19914;-87
2024/01/26 02:38:04;;;;;;;;;;;;;;;7.20;50.83;99794.47;4974606;28;19918;-88
2024/01/26 02:40:30;;;;;;;;;;;;;;;7.21;50.54;99790.88;4973385;28;19914;-87
2024/01/26 02:42:55;;;;;;;;;;;;;;;7.21;50.29;99790.88;4957279;28;19914;-87
2024/01/26 02:45:21;;;;;;;;;;;;;;;7.24;50.62;99788.78;4957258;28;19914;-87
2024/01/26 02:47:46;;;;;;;;;;;;;;;7.21;50.67;99786.44;4973318;28;19914;-88
2024/01/26 02:50:11;;;;;;;;;;;;;;;7.23;50.62;99791.56;4973328;28;19950;-87
2024/01/26 02:52:36;;;;;;;;;;;;;;;7.23;50.99;99792.38;4957093;28;20017;-87
2024/01/26 02:55:02;;;;;;;;;;;;;;;7.18;50.69;99792.00;4956973;28;19922;-86
2024/01/26 02:57:27;;;;;;;;;;;;;;;7.22;50.36;99797.78;4972954;28;19914;-87
2024/01/26 02:59:52;;;;;;;;;;;;;;;7.23;50.98;99797.63;4974480;28;20427;-87
2024/01/26 03:02:17;;;;;;;;;;;;;;;7.18;50.74;99796.44;4974137;28;19928;-88
2024/01/26 03:04:43;;;;;;;;;;;;;;;7.19;50.10;99803.34;4973005;28;19914;-88
2024/01/26 03:07:08;;;;;;;;;;;;;;;7.16;50.01;99806.25;4974227;28;19914;-88
2024/01/26 03:09:33;;;;;;;;;;;;;;;7.20;50.12;99799.72;4956912;28;19997;-88
2024/01/26 03:11:59;;;;;;;;;;;;;;;7.25;50.86;99800.09;4974406;28;19914;-88
2024/01/26 03:14:24;;;;;;;;;;;;;;;7.27;50.59;99798.97;4974128;28;19914;-88
2024/01/26 03:16:50;;;;;;;;;;;;;;;7.26;50.59;99799.97;4974390;28;20415;-88
2024/01/26 03:19:15;;;;;;;;;;;;;;;7.24;49.85;99801.91;4956390;28;19922;-88
2024/01/26 03:21:41;;;;;;;;;;;;;;;7.27;49.98;99806.84;4972367;28;20296;-87
2024/01/26 03:24:07;;;;;;;;;;;;;;;7.34;50.56;99810.53;4974279;28;19920;-88
2024/01/26 03:26:32;;;;;;;;;;;;;;;7.30;50.58;99810.97;4957046;28;20370;-88
2024/01/26 03:28:58;;;;;;;;;;;;;;;7.31;50.32;99807.38;4956431;28;19969;-87
2024/01/26 03:31:23;;;;;;;;;;;;;;;7.24;50.20;99808.97;4956642;28;19914;-88
2024/01/26 03:33:48;;;;;;;;;;;;;;;7.24;50.27;99809.78;4973986;28;20415;-87
2024/01/26 03:36:14;;;;;;;;;;;;;;;7.28;50.59;99813.75;4956426;28;19940;-88
2024/01/26 03:38:40;;;;;;;;;;;;;;;7.33;50.65;99815.94;4956165;28;19917;-87
2024/01/26 03:41:05;;;;;;;;;;;;;;;7.37;51.08;99813.84;4971988;28;19918;-88
2024/01/26 03:43:30;;;;;;;;;;;;;;;7.33;50.38;99818.56;4971951;28;19914;-88
2024/01/26 03:45:56;;;;;;;;;;;;;;;7.28;51.05;99820.81;4972072;28;19922;-88
2024/01/26 03:48:21;;;;;;;;;;;;;;;7.30;50.88;99819.69;4973423;28;19914;-88
2024/01/26 03:50:46;;;;;;;;;;;;;;;7.31;51.14;99823.97;4973294;28;19914;-88
2024/01/26 03:53:12;;;;;;;;;;;;;;;7.28;50.76;99823.44;4973223;28;20402;-88
2024/01/26 03:55:37;;;;;;;;;;;;;;;7.19;50.59;99819.91;4971846;28;20000;-88
2024/01/26 03:58:03;;;;;;;;;;;;;;;7.25;51.06;99823.75;4955835;28;19914;-87
2024/01/26 04:00:28;;;;;;;;;;;;;;;7.21;50.23;99828.47;4973215;28;20029;-87
2024/01/26 04:02:53;;;;;;;;;;;;;;;7.17;50.69;99831.53;4972988;28;19977;-88
2024/01/26 04:05:19;;;;;;;;;;;;;;;7.22;50.40;99821.41;4955747;28;19914;-88
2024/01/26 04:07:44;;;;;;;;;;;;;;;7.24;50.79;99828.16;4971732;28;19957;-88
2024/01/26 04:10:09;;;;;;;;;;;;;;;7.28;50.50;99833.94;4971449;28;20014;-89
2024/01/26 04:12:34;;;;;;;;;;;;;;;7.25;50.30;99829.81;4955504;28;19921;-88
2024/01/26 04:15:00;;;;;;;;;;;;;;;7.31;50.81;99834.47;4955550;28;20399;-88
2024/01/26 04:17:25;;;;;;;;;;;;;;;7.29;50.19;99840.84;4972749;28;19957;-88
2024/01/26 04:19:50;;;;;;;;;;;;;;;7.31;50.55;99823.97;4971593;28;19922;-88
2024/01/26 04:22:16;;;;;;;;;;;;;;;7.32;50.44;99833.50;4955712;28;19918;-86
2024/01/26 04:24:41;;;;;;;;;;;;;;;7.30;50.32;99832.00;4972972;28;20048;-88
2024/01/26 04:27:07;;;;;;;;;;;;;;;7.31;50.31;99834.47;4955490;28;19938;-88
2024/01/26 04:29:33;;;;;;;;;;;;;;;7.35;50.87;99837.63;4973002;28;19921;-88
2024/01/26 04:31:58;;;;;;;;;;;;;;;7.40;50.24;99840.63;4971631;28;19914;-87
2024/01/26 04:34:24;;;;;;;;;;;;;;;7.36;50.58;99849.78;4958123;28;19929;-88
2024/01/26 04:36:50;;;;;;;;;;;;;;;7.42;49.96;99846.56;4976842;28;19914;-89
2024/01/26 04:39:16;;;;;;;;;;;;;;;7.46;50.33;99847.09;4959389;28;19921;-88
2024/01/26 04:41:41;;;;;;;;;;;;;;;7.40;50.09;99858.19;4975260;28;20300;-88
2024/01/26 04:44:06;;;;;;;;;;;;;;;7.43;50.01;99842.97;4975240;28;19914;-88
2024/01/26 04:46:32;;;;;;;;;;;;;;;7.47;50.14;99849.59;4975249;28;19968;-88
2024/01/26 04:48:57;;;;;;;;;;;;;;;7.48;49.98;99843.34;4959130;28;19918;-89
2024/01/26 04:51:22;;;;;;;;;;;;;;;7.48;49.75;99845.97;4959003;28;19925;-88
2024/01/26 04:53:48;;;;;;;;;;;;;;;7.50;49.99;99858.97;4958932;28;19968;-88
2024/01/26 04:56:13;;;;;;;;;;;;;;;7.50;49.83;99866.84;4958974;28;19910;-88
2024/01/26 04:58:38;;;;;;;;;;;;;;;7.42;49.64;99857.06;4976342;28;20068;-88
2024/01/26 05:01:04;;;;;;;;;;;;;;;7.41;49.64;99862.47;4976306;28;19918;-88
2024/01/26 05:03:29;;;;;;;;;;;;;;;7.45;49.84;99867.31;4976300;28;20005;-88
2024/01/26 05:05:55;;;;;;;;;;;;;;;7.49;50.14;99857.31;4976240;28;19920;-88
2024/01/26 05:08:20;;;;;;;;;;;;;;;7.48;49.30;99853.03;4974952;28;19914;-87
2024/01/26 05:10:45;;;;;;;;;;;;;;;7.52;49.65;99862.28;4976437;28;19914;-88
2024/01/26 05:13:11;;;;;;;;;;;;;;;7.50;49.51;99857.16;4976657;28;19921;-88
2024/01/26 05:15:36;;;;;;;;;;;;;;;7.50;49.53;99861.59;4958975;28;19937;-88
2024/01/26 05:18:03;;;;;;;;;;;;;;;7.49;48.90;99870.44;4976293;28;19914;-88
2024/01/26 05:20:29;;;;;;;;;;;;;;;7.49;49.65;99866.03;4976273;28;19981;-88
2024/01/26 05:22:54;;;;;;;;;;;;;;;7.42;49.39;99857.06;4958856;28;20013;-88
2024/01/26 05:25:19;;;;;;;;;;;;;;;7.43;49.33;99871.88;4976105;28;19961;-88
2024/01/26 05:27:45;;;;;;;;;;;;;;;7.44;49.43;99857.78;4976168;28;20020;-89
2024/01/26 05:30:10;;;;;;;;;;;;;;;7.42;49.52;99857.06;4975905;28;19918;-88
2024/01/26 05:32:35;;;;;;;;;;;;;;;7.42;49.81;99864.94;4975872;28;19914;-87
2024/01/26 05:35:01;;;;;;;;;;;;;;;7.39;49.64;99859.16;4958268;28;19923;-88
2024/01/26 05:37:26;;;;;;;;;;;;;;;7.35;49.99;99863.88;4974493;28;19918;-88
2024/01/26 05:39:51;;;;;;;;;;;;;;;7.36;49.83;99872.59;4975699;28;20018;-88
2024/01/26 05:42:16;;;;;;;;;;;;;;;7.33;49.45;99865.84;4974464;28;19918;-89
2024/01/26 05:44:42;;;;;;;;;;;;;;;7.37;49.83;99875.06;4975367;28;19936;-88
2024/01/26 05:47:07;;;;;;;;;;;;;;;7.38;50.04;99874.09;4958398;28;19973;-88
2024/01/26 05:49:33;;;;;;;;;;;;;;;7.34;49.84;99872.75;4975298;28;19914;-88
2024/01/26 05:51:59;;;;;;;;;;;;;;;7.31;49.47;99859.91;4975504;28;19914;-88
2024/01/26 05:54:24;;;;;;;;;;;;;;;7.27;49.41;99864.63;4975703;28;20254;-88
2024/01/26 05:56:49;;;;;;;;;;;;;;;7.29;50.14;99867.13;4975195;28;19914;-88
2024/01/26 05:59:14;;;;;;;;;;;;;;;7.25;49.53;99865.75;4974139;28;19914;-89
2024/01/26 06:01:40;;;;;;;;;;;;;;;7.23;49.69;99863.28;4975637;28;20300;-88
2024/01/26 06:04:05;;;;;;;;;;;;;;;7.32;50.00;99861.56;4975498;28;20423;-89
2024/01/26 06:06:30;;;;;;;;;;;;;;;7.34;49.68;99868.31;4975309;28;19982;-88
2024/01/26 06:08:56;;;;;;;;;;;;;;;7.37;49.56;99864.56;4975421;28;20400;-87
2024/01/26 06:11:22;;;;;;;;;;;;;;;7.43;49.62;99868.41;4975565;28;19910;-87
2024/01/26 06:13:47;;;;;;;;;;;;;;;7.39;49.04;99867.03;4957872;28;19914;-88
2024/01/26 06:16:13;;;;;;;;;;;;;;;7.39;49.07;99867.88;4975623;28;19914;-88
2024/01/26 06:18:39;;;;;;;;;;;;;;;7.40;49.12;99860.81;4975192;28;19914;-88
2024/01/26 06:21:04;;;;;;;;;;;;;;;7.45;49.13;99859.41;4957759;28;20292;-88
2024/01/26 06:23:29;;;;;;;;;;;;;;;7.46;48.92;99858.44;4957600;28;19985;-88
2024/01/26 06:25:55;;;;;;;;;;;;;;;7.45;48.68;99867.31;4975500;28;19965;-86
2024/01/26 06:28:20;;;;;;;;;;;;;;;7.46;49.08;99878.63;4973914;28;20021;-88
2024/01/26 06:30:45;;;;;;;;;;;;;;;7.49;49.39;99880.97;4974967;28;19915;-88
2024/01/26 06:33:10;;;;;;;;;;;;;;;7.46;48.81;99886.50;4973551;28;19914;-88
2024/01/26 06:35:36;;;;;;;;;;;;;;;7.50;48.75;99888.69;4973371;28;19922;-88
2024/01/26 06:38:01;;;;;;;;;;;;;;;7.47;48.93;99891.63;4974917;28;20463;-86
2024/01/26 06:40:27;;;;;;;;;;;;;;;7.54;48.95;99883.97;4957368;28;19921;-87
2024/01/26 06:42:52;;;;;;;;;;;;;;;7.56;48.70;99885.47;4973136;28;19918;-88
2024/01/26 06:45:17;;;;;;;;;;;;;;;7.58;49.10;99877.44;4974320;28;19941;-88
2024/01/26 06:47:43;;;;;;;;;;;;;;;7.54;48.85;99863.78;4974487;28;20388;-88
2024/01/26 06:50:09;;;;;;;;;;;;;;;7.57;48.54;99854.75;4957033;28;19918;-88
2024/01/26 06:52:35;;;;;;;;;;;;;;;7.53;48.47;99863.91;4973159;28;20567;-88
2024/01/26 06:55:00;;;;;;;;;;;;;;;7.56;48.69;99863.63;4974168;28;19996;-88
2024/01/26 06:57:26;;;;;;;;;;;;;;;7.60;48.72;99870.22;4974206;28;20006;-88
2024/01/26 06:59:51;;;;;;;;;;;;;;;7.62;48.55;99884.03;4953738;29;20364;-88
2024/01/26 07:02:16;;;;;;;;;;;;;;;7.63;48.24;99876.00;4954939;29;19918;-88
2024/01/26 07:04:43;;;;;;;;;;;;;;;7.69;48.67;99876.38;4955037;29;19938;-89
2024/01/26 07:07:08;;;;;;;;;;;;;;;7.78;48.85;99878.09;4955377;28;20421;-88
2024/01/26 07:09:33;;;;;;;;;;;;;;;7.77;48.15;99881.69;4969287;28;19969;-88
2024/01/26 07:11:59;;;;;;;;;;;;;;;7.74;48.49;99893.34;4966576;28;19965;-88
2024/01/26 07:14:24;;;;;;;;;;;;;;;7.73;48.08;99896.94;4973900;28;19964;-89
2024/01/26 07:16:49;;;;;;;;;;;;;;;7.82;48.65;99898.66;4971640;28;20001;-88
2024/01/26 07:19:15;;;;;;;;;;;;;;;7.85;48.52;99906.25;4961929;28;20318;-89
2024/01/26 07:21:40;;;;;;;;;;;;;;;7.91;48.22;99883.78;4972708;28;19918;-89
2024/01/26 07:24:06;;;;;;;;;;;;;;;7.86;47.66;99902.66;4953334;28;19914;-88
2024/01/26 07:26:31;;;;;;;;;;;;;;;7.90;47.91;99917.13;4965377;28;19918;-88
2024/01/26 07:28:56;;;;;;;;;;;;;;;8.00;48.13;99901.28;4956998;28;20312;-89
2024/01/26 07:31:22;;;;;;;;;;;;;;;8.05;48.33;99903.44;4960988;28;19993;-89
2024/01/26 07:33:47;;;;;;;;;;;;;;;8.09;48.10;99908.25;4957958;28;19989;-89
2024/01/26 07:36:12;;;;;;;;;;;;;;;8.08;47.35;99916.28;4952803;28;20009;-88
2024/01/26 07:38:37;;;;;;;;;;;;;;;8.16;47.83;99917.16;4953051;29;19949;-88
2024/01/26 07:41:03;;;;;;;;;;;;;;;8.17;47.44;99905.66;4954274;29;19923;-88
2024/01/26 07:43:28;;;;;;;;;;;;;;;8.21;47.79;99917.56;4957162;28;19973;-88
2024/01/26 07:45:53;;;;;;;;;;;;;;;8.17;46.90;99910.94;4974645;28;19918;-89
2024/01/26 07:48:19;;;;;;;;;;;;;;;8.25;47.59;99911.03;4954624;28;19914;-88
2024/01/26 07:50:45;;;;;;;;;;;;;;;8.27;47.02;99906.44;4970042;28;19918;-89
2024/01/26 07:53:11;;;;;;;;;;;;;;;8.26;47.03;99911.84;4971558;28;19957;-88
2024/01/26 07:55:36;;;;;;;;;;;;;;;8.35;46.99;99933.81;4971614;28;19921;-89
2024/01/26 07:58:02;;;;;;;;;;;;;;;8.34;46.81;99919.00;4971613;28;19914;-89
2024/01/26 08:00:28;;;;;;;;;;;;;;;8.40;46.99;99921.00;4972114;28;19910;-88
2024/01/26 08:02:53;;;;;;;;;;;;;;;8.41;46.82;99905.06;4972796;28;19922;-88
2024/01/26 08:05:18;;;;;;;;;;;;;;;8.45;46.06;99922.19;4972390;28;19914;-88
2024/01/26 08:07:44;;;;;;;;;;;;;;;8.49;46.11;99922.72;4966959;28;20310;-88
2024/01/26 08:10:09;;;;;;;;;;;;;;;8.52;46.03;99928.50;4966035;28;19899;-88
2024/01/26 08:12:35;;;;;;;;;;;;;;;8.57;45.81;99917.50;4968775;28;19914;-89
2024/01/26 08:15:00;;;;;;;;;;;;;;;8.58;45.99;99916.50;4960259;28;19922;-88
2024/01/26 08:17:25;;;;;;;;;;;;;;;8.67;46.51;99928.75;4978390;28;19919;-88
2024/01/26 08:19:51;;;;;;;;;;;;;;;8.72;46.33;99921.19;4971609;28;19918;-88
2024/01/26 08:22:16;;;;;;;;;;;;;;;8.72;46.04;99920.38;4968456;28;20380;-88
2024/01/26 08:24:41;;;;;;;;;;;;;;;8.71;45.08;99918.72;4953397;29;19918;-86
2024/01/26 08:27:07;;;;;;;;;;;;;;;8.75;45.11;99920.06;4966507;28;19918;-89
2024/01/26 08:29:32;;;;;;;;;;;;;;;8.77;45.15;99924.19;4992657;28;20284;-88
2024/01/26 08:31:57;;;;;;;;;;;;;;;8.77;44.94;99934.72;4974965;28;20378;-88
2024/01/26 08:34:23;;;;;;;;;;;;;;;8.80;44.54;99929.13;4992070;28;19929;-88
2024/01/26 08:36:48;;;;;;;;;;;;;;;8.80;44.14;99925.69;4981181;28;19968;-88
2024/01/26 08:39:14;;;;;;;;;;;;;;;8.88;44.74;99923.09;4971630;28;19914;-89
2024/01/26 08:41:40;;;;;;;;;;;;;;;8.95;45.10;99925.94;4970358;28;20911;-86
2024/01/26 08:44:05;;;;;;;;;;;;;;;8.99;44.69;99928.09;4971540;28;19915;-89
2024/01/26 08:46:30;;;;;;;;;;;;;;;9.04;44.98;99928.44;4972736;28;19989;-89
2024/01/26 08:48:55;;;;;;;;;;;;;;;9.00;44.34;99919.22;4971451;28;19922;-89
2024/01/26 08:51:22;;;;;;;;;;;;;;;9.10;44.95;99926.97;4979365;28;19996;-88
2024/01/26 08:53:47;;;;;;;;;;;;;;;9.11;44.74;99933.91;4974373;28;19914;-88
2024/01/26 08:56:14;;;;;;;;;;;;;;;9.12;43.66;99923.22;4974511;28;19920;-88
2024/01/26 08:58:40;;;;;;;;;;;;;;;9.21;44.60;99931.97;4992136;28;19917;-88
2024/01/26 09:01:05;;;;;;;;;;;;;;;9.23;44.33;99943.16;4975206;28;20060;-89
2024/01/26 09:03:30;;;;;;;;;;;;;;;9.16;43.58;99932.44;4961636;28;19925;-88
2024/01/26 09:05:56;;;;;;;;;;;;;;;9.21;42.74;99927.53;4968408;28;20356;-89
2024/01/26 09:08:21;;;;;;;;;;;;;;;9.29;43.58;99918.81;4943210;28;20009;-90
2024/01/26 09:10:46;;;;;;;;;;;;;;;9.31;43.39;99930.03;4971406;28;19923;-89
2024/01/26 09:13:11;;;;;;;;;;;;;;;9.35;43.07;99914.72;4955302;28;20310;-89
2024/01/26 09:15:37;;;;;;;;;;;;;;;9.41;43.02;99916.69;4968275;28;19965;-89
2024/01/26 09:18:02;;;;;;;;;;;;;;;9.44;42.98;99913.75;4964297;28;19925;-88
2024/01/26 09:20:28;;;;;;;;;;;;;;;9.46;42.58;99917.88;4974664;28;19918;-89
2024/01/26 09:22:53;;;;;;;;;;;;;;;9.50;42.93;99915.72;4972920;28;19977;-93
2024/01/26 09:25:18;;;;;;;;;;;;;;;9.55;42.41;99932.72;4974046;28;19953;-89
2024/01/26 09:27:45;;;;;;;;;;;;;;;9.54;42.77;99925.78;4975705;28;19914;-89
2024/01/26 09:30:10;;;;;;;;;;;;;;;9.59;42.40;99927.94;4960240;28;19919;-89
2024/01/26 09:32:36;;;;;;;;;;;;;;;9.67;42.60;99916.59;4955730;28;19929;-90
2024/01/26 09:35:03;;;;;;;;;;;;;;;9.73;41.57;99924.69;4974141;28;19922;-89
2024/01/26 09:37:28;;;;;;;;;;;;;;;9.79;42.36;99926.69;4974411;28;19938;-89
2024/01/26 09:39:53;;;;;;;;;;;;;;;9.84;42.01;99948.09;4974460;28;20447;-89
2024/01/26 09:42:19;;;;;;;;;;;;;;;9.84;41.38;99915.63;4971212;28;19937;-88
2024/01/26 09:44:44;;;;;;;;;;;;;;;9.87;40.69;99924.03;4973311;28;19971;-87
2024/01/26 09:47:12;;;;;;;;;;;;;;;9.90;41.64;99909.69;4957833;28;19945;-89
2024/01/26 09:49:43;;;;;;;;;;;;;;;9.99;41.44;99923.72;4974193;28;19918;-88
2024/01/26 09:52:09;;;;;;;;;;;;;;;9.96;41.73;99934.59;4970293;28;19929;-88
2024/01/26 09:54:35;;;;;;;;;;;;;;;10.04;41.72;99909.03;4972921;28;20013;-88
2024/01/26 09:57:01;;;;;;;;;;;;;;;9.94;40.79;99929.50;4982926;28;19950;-88
2024/01/26 09:59:26;;;;;;;;;;;;;;;10.05;40.95;99896.69;4984247;28;19914;-89
2024/01/26 10:01:53;;;;;;;;;;;;;;;10.06;40.49;99893.03;4970999;28;19981;-88
2024/01/26 10:04:18;;;;;;;;;;;;;;;10.10;41.12;99892.53;4974001;28;19989;-88
2024/01/26 10:06:45;;;;;;;;;;;;;;;10.18;40.91;99889.91;4957903;28;20375;-89
2024/01/26 10:09:12;;;;;;;;;;;;;;;10.14;40.40;99890.41;4988634;28;19925;-88
2024/01/26 10:11:37;;;;;;;;;;;;;;;10.20;40.07;99881.84;4994750;28;19940;-88
2024/01/26 10:14:03;;;;;;;;;;;;;;;10.27;40.22;99882.00;4961837;28;19922;-88
2024/01/26 10:16:28;;;;;;;;;;;;;;;10.35;41.10;99874.88;4970038;28;19922;-87
2024/01/26 10:18:53;;;;;;;;;;;;;;;10.44;40.16;99878.38;4957559;28;19918;-87
2024/01/26 10:21:20;;;;;;;;;;;;;;;10.47;40.40;99864.81;4973641;28;19919;-87
2024/01/26 10:23:46;;;;;;;;;;;;;;;10.42;39.75;99864.50;4970747;28;19926;-87
2024/01/26 10:26:12;;;;;;;;;;;;;;;10.49;40.14;99865.47;4972547;28;19965;-87
2024/01/26 10:28:38;;;;;;;;;;;;;;;10.56;39.83;99868.28;4956498;28;20329;-87
2024/01/26 10:31:04;;;;;;;;;;;;;;;10.61;39.55;99895.81;4969184;28;19914;-86
2024/01/26 10:33:29;;;;;;;;;;;;;;;10.62;38.92;99878.16;4965413;28;19941;-87
2024/01/26 10:36:00;;;;;;;;;;;;;;;10.58;39.16;99871.56;4973586;28;20315;-86
2024/01/26 10:38:28;;;;;;;;;;;;;;;10.62;39.35;99863.13;4975102;28;20375;-86
2024/01/26 10:40:57;;;;;;;;;;;;;;;10.66;39.18;99868.91;4982881;28;19918;-87
2024/01/26 10:43:23;;;;;;;;;;;;;;;10.74;39.66;99861.75;4973185;28;19918;-87
2024/01/26 10:45:48;;;;;;;;;;;;;;;10.80;39.00;99876.94;4980611;28;19921;-87
2024/01/26 10:48:15;;;;;;;;;;;;;;;10.79;39.62;99871.81;4956340;28;19968;-87
2024/01/26 10:50:41;;;;;;;;;;;;;;;10.81;39.05;99861.91;4957271;28;19914;-87
2024/01/26 10:53:07;;;;;;;;;;;;;;;10.88;39.26;99888.44;4973939;28;19913;-87
2024/01/26 10:55:34;;;;;;;;;;;;;;;10.90;38.68;99852.13;4980244;28;20000;-87
2024/01/26 10:58:01;;;;;;;;;;;;;;;10.89;39.23;99866.31;4981710;28;19918;-88
2024/01/26 11:00:26;;;;;;;;;;;;;;;10.91;38.60;99869.63;4987018;28;20404;-86
2024/01/26 11:02:53;;;;;;;;;;;;;;;10.93;39.35;99849.13;4979599;28;19922;-86
2024/01/26 11:05:18;;;;;;;;;;;;;;;10.90;38.56;99847.66;4980885;28;19922;-87
2024/01/26 11:07:44;;;;;;;;;;;;;;;10.88;39.15;99832.97;4954125;28;19933;-86
2024/01/26 11:10:11;;;;;;;;;;;;;;;10.89;39.20;99830.16;4976569;28;19961;-88
2024/01/26 11:12:38;;;;;;;;;;;;;;;10.93;39.33;99830.63;4991643;28;20000;-86
2024/01/26 11:15:08;;;;;;;;;;;;;;;10.87;38.82;99832.16;4959820;28;19918;-86
2024/01/26 11:17:43;;;;;;;;;;;;;;;10.81;39.02;99838.94;4971814;28;19969;-88
2024/01/26 11:20:14;;;;;;;;;;;;;;;10.77;39.19;99842.09;4969621;28;19953;-87
2024/01/26 11:22:40;;;;;;;;;;;;;;;10.76;39.14;99848.38;4978995;28;19928;-87
2024/01/26 11:25:05;;;;;;;;;;;;;;;10.76;39.53;99841.28;4976054;28;19915;-87
2024/01/26 11:27:31;;;;;;;;;;;;;;;10.74;39.07;99832.72;4987493;28;20326;-87
2024/01/26 11:29:56;;;;;;;;;;;;;;;10.73;39.72;99841.63;4975644;28;19914;-88
2024/01/26 11:32:22;;;;;;;;;;;;;;;10.70;39.42;99854.34;4954184;28;20395;-87
2024/01/26 11:35:00;;;;;;;;;;;;;;;10.74;40.18;99831.88;4956115;28;19922;-86
2024/01/26 11:37:26;;;;;;;;;;;;;;;10.79;39.96;99855.97;4973723;28;19996;-87
2024/01/26 11:39:52;;;;;;;;;;;;;;;10.85;39.59;99847.34;4951197;29;19997;-87
2024/01/26 11:42:18;;;;;;;;;;;;;;;10.85;39.79;99849.16;4966508;28;19922;-87
2024/01/26 11:44:49;;;;;;;;;;;;;;;10.84;39.64;99837.78;4954026;28;19921;-86
2024/01/26 11:47:15;;;;;;;;;;;;;;;10.77;39.56;99848.22;4969118;28;20009;-87
2024/01/26 11:49:40;;;;;;;;;;;;;;;10.75;38.82;99831.72;4970401;28;20045;-86
2024/01/26 11:52:06;;;;;;;;;;;;;;;10.77;39.12;99832.38;4970451;28;19941;-86
2024/01/26 11:54:32;;;;;;;;;;;;;;;10.80;39.11;99821.47;4952417;28;19925;-87
2024/01/26 11:56:58;;;;;;;;;;;;;;;10.88;39.93;99838.25;4953772;28;19922;-87
2024/01/26 11:59:23;;;;;;;;;;;;;;;10.93;39.43;99822.72;4953513;28;19925;-86
2024/01/26 12:01:48;;;;;;;;;;;;;;;10.93;39.24;99820.06;4969956;28;19922;-86
2024/01/26 12:04:15;;;;;;;;;;;;;;;10.92;39.29;99811.31;4955723;28;19918;-87
2024/01/26 12:06:41;;;;;;;;;;;;;;;10.93;39.21;99818.25;4956383;28;19990;-87
2024/01/26 12:09:07;;;;;;;;;;;;;;;10.96;38.82;99815.25;4956187;28;19934;-87
2024/01/26 12:11:32;;;;;;;;;;;;;;;10.93;38.85;99812.16;4959290;28;19910;-87
2024/01/26 12:13:57;;;;;;;;;;;;;;;10.90;38.63;99813.31;4973245;28;20350;-87
2024/01/26 12:16:23;;;;;;;;;;;;;;;10.95;39.50;99818.06;4957198;28;20400;-87
2024/01/26 12:18:48;;;;;;;;;;;;;;;10.95;39.26;99828.66;4959214;28;19921;-86
2024/01/26 12:21:14;;;;;;;;;;;;;;;10.97;39.55;99826.66;4952279;29;19918;-86
2024/01/26 12:23:39;;;;;;;;;;;;;;;10.95;38.89;99826.81;4939998;29;20395;-87
2024/01/26 12:26:09;;;;;;;;;;;;;;;11.00;39.47;99847.44;4951818;28;19921;-87
2024/01/26 12:28:34;;;;;;;;;;;;;;;11.05;39.20;99823.97;4954807;28;20326;-87
2024/01/26 12:30:59;;;;;;;;;;;;;;;11.15;39.02;99840.44;4971175;28;19917;-86
2024/01/26 12:33:24;;;;;;;;;;;;;;;11.22;39.44;99830.00;4966651;28;19969;-87
2024/01/26 12:35:51;;;;;;;;;;;;;;;11.34;39.23;99841.81;4972911;28;19965;-87
2024/01/26 12:38:17;;;;;;;;;;;;;;;11.40;38.03;99849.03;4954958;28;19926;-87
2024/01/26 12:40:42;;;;;;;;;;;;;;;11.42;38.35;99847.88;4969117;28;19922;-86
2024/01/26 12:43:08;;;;;;;;;;;;;;;11.45;38.50;99860.75;4969849;28;20338;-86
2024/01/26 12:45:34;;;;;;;;;;;;;;;11.41;38.16;99851.50;4962914;28;19973;-86